Time;durP1;ratioP1;P1;durP2;ratioP2;P2;SDS_P1;SDS_P2;PMS_P1;PMS_P2;Temp;Humidity;BMP_temperature;BMP_pressure;BME280_temperature;BME280_humidity;BME280_pressure;Samples;Min_cycle;Max_cycle;Signal;HPM_P1;HPM_P2
2023/08/01 00:00:07;;;;;;;8.10;3.10;;;;;;;20.04;57.39;99491.16;5051096;28;20198;-61
2023/08/01 00:02:35;;;;;;;4.00;2.35;;;;;;;20.08;57.45;99489.19;5051796;28;20580;-62
2023/08/01 00:05:03;;;;;;;4.28;2.67;;;;;;;20.09;57.45;99494.31;5052459;28;20292;-60
2023/08/01 00:07:32;;;;;;;4.93;2.30;;;;;;;20.12;57.38;99499.38;5048235;28;20686;-61
2023/08/01 00:10:03;;;;;;;3.30;2.58;;;;;;;20.15;57.49;99499.19;5049944;28;20248;-60
2023/08/01 00:12:32;;;;;;;2.45;2.22;;;;;;;20.17;57.21;99492.06;5050143;28;20260;-60
2023/08/01 00:15:00;;;;;;;4.80;2.47;;;;;;;20.20;57.08;99496.28;5041861;28;20660;-60
2023/08/01 00:17:29;;;;;;;4.72;2.78;;;;;;;20.19;56.87;99485.00;5051764;28;20202;-61
2023/08/01 00:19:57;;;;;;;3.67;2.33;;;;;;;20.19;57.21;99487.63;5049533;28;20622;-62
2023/08/01 00:22:25;;;;;;;2.75;2.42;;;;;;;20.18;56.81;99480.72;5054985;28;20205;-61
2023/08/01 00:24:53;;;;;;;3.70;2.40;;;;;;;20.18;57.04;99487.72;5045742;28;20253;-61
2023/08/01 00:27:21;;;;;;;3.10;2.42;;;;;;;20.18;57.16;99479.88;5048931;28;20222;-61
2023/08/01 00:29:50;;;;;;;5.75;2.33;;;;;;;20.18;57.12;99478.09;5049725;28;20201;-61
2023/08/01 00:32:18;;;;;;;2.53;2.17;;;;;;;20.18;57.19;99483.31;5049193;28;20238;-61
2023/08/01 00:34:47;;;;;;;2.63;2.20;;;;;;;20.16;57.30;99474.72;5051403;28;20202;-61
2023/08/01 00:37:15;;;;;;;4.35;2.47;;;;;;;20.14;57.37;99471.38;5046883;28;20251;-62
2023/08/01 00:39:43;;;;;;;3.00;2.35;;;;;;;20.15;57.44;99473.03;5047876;28;20592;-61
2023/08/01 00:42:11;;;;;;;3.97;2.40;;;;;;;20.17;57.26;99465.91;5053861;28;20212;-60
2023/08/01 00:44:39;;;;;;;4.05;2.47;;;;;;;20.15;57.39;99470.41;5049118;28;20282;-61
2023/08/01 00:47:07;;;;;;;8.98;2.53;;;;;;;20.13;56.96;99463.59;5049081;28;20694;-60
2023/08/01 00:49:35;;;;;;;2.63;2.22;;;;;;;20.06;57.25;99465.72;5051563;28;20995;-60
2023/08/01 00:52:06;;;;;;;3.67;2.30;;;;;;;20.01;57.22;99460.78;5050402;28;20668;-61
2023/08/01 00:54:36;;;;;;;4.57;2.42;;;;;;;19.98;57.29;99460.13;5047311;28;20240;-61
2023/08/01 00:57:05;;;;;;;3.65;2.75;;;;;;;19.93;57.52;99449.09;5045522;28;20230;-61
2023/08/01 00:59:33;;;;;;;3.40;2.50;;;;;;;19.92;57.61;99450.03;5049892;28;20202;-62
2023/08/01 01:02:02;;;;;;;3.25;2.50;;;;;;;19.90;57.65;99444.91;5050576;28;20600;-63
2023/08/01 01:04:30;;;;;;;4.10;2.65;;;;;;;19.92;57.98;99434.31;5048810;28;20209;-61
2023/08/01 01:07:01;;;;;;;2.75;2.08;;;;;;;19.93;57.91;99430.81;5049572;28;20213;-61
2023/08/01 01:09:39;;;;;;;3.90;2.45;;;;;;;19.95;57.64;99429.75;5046920;28;20661;-62
2023/08/01 01:12:08;;;;;;;5.05;2.00;;;;;;;19.97;57.64;99427.06;5044101;28;20258;-61
2023/08/01 01:14:36;;;;;;;3.20;2.40;;;;;;;19.97;57.69;99421.84;5037414;28;20737;-63
2023/08/01 01:17:04;;;;;;;3.38;2.50;;;;;;;19.99;57.58;99426.06;5046720;28;20205;-63
2023/08/01 01:19:32;;;;;;;4.95;2.30;;;;;;;19.98;57.40;99418.28;5049957;28;20237;-61
2023/08/01 01:22:04;;;;;;;3.88;2.25;;;;;;;19.97;57.27;99416.59;5052367;28;20292;-61
2023/08/01 01:24:34;;;;;;;2.40;2.20;;;;;;;19.94;57.33;99417.63;5052314;28;20573;-62
2023/08/01 01:27:04;;;;;;;3.72;2.53;;;;;;;19.94;57.34;99412.41;5046377;28;20233;-61
2023/08/01 01:29:34;;;;;;;3.17;2.65;;;;;;;19.89;57.16;99409.22;5054309;28;20197;-61
2023/08/01 01:32:04;;;;;;;3.75;2.35;;;;;;;19.90;57.48;99410.06;5047383;28;20604;-60
2023/08/01 01:34:31;;;;;;;3.22;2.15;;;;;;;19.90;57.22;99399.59;5048439;28;20226;-61
2023/08/01 01:37:01;;;;;;;5.30;2.88;;;;;;;19.91;57.27;99396.88;5048793;28;20202;-61
2023/08/01 01:39:29;;;;;;;2.50;2.30;;;;;;;19.92;57.18;99385.50;5048184;28;20216;-62
2023/08/01 01:41:58;;;;;;;3.75;2.30;;;;;;;19.93;57.06;99396.81;5046859;28;20530;-61
2023/08/01 01:44:26;;;;;;;3.38;2.17;;;;;;;19.92;57.21;99387.25;5046309;28;20221;-60
2023/08/01 01:46:54;;;;;;;4.75;2.05;;;;;;;19.89;56.81;99383.09;5045623;28;20252;-60
2023/08/01 01:49:24;;;;;;;6.85;2.05;;;;;;;19.88;57.17;99380.53;5049862;28;20229;-63
2023/08/01 01:51:52;;;;;;;2.60;2.30;;;;;;;19.88;57.32;99378.75;5042402;28;20230;-61
2023/08/01 01:54:22;;;;;;;3.05;2.58;;;;;;;19.90;57.48;99381.31;5039829;28;20209;-62
2023/08/01 01:56:50;;;;;;;2.53;2.33;;;;;;;19.91;57.38;99380.34;5049855;28;20702;-62
2023/08/01 01:59:18;;;;;;;3.58;2.03;;;;;;;19.89;57.28;99377.84;5045382;28;20229;-60
2023/08/01 02:01:46;;;;;;;3.83;2.22;;;;;;;19.88;57.78;99375.31;5048837;28;20202;-61
2023/08/01 02:04:14;;;;;;;2.25;2.03;;;;;;;19.89;57.85;99370.00;5049631;28;20629;-63
2023/08/01 02:06:42;;;;;;;4.57;2.40;;;;;;;19.94;57.88;99373.16;5046505;28;20679;-61
2023/08/01 02:09:10;;;;;;;3.08;2.30;;;;;;;19.92;57.73;99366.34;5050305;28;20680;-61
2023/08/01 02:11:39;;;;;;;5.65;2.60;;;;;;;19.92;57.89;99361.13;5052663;28;20573;-61
2023/08/01 02:14:07;;;;;;;2.95;2.13;;;;;;;19.90;57.95;99358.59;5053599;28;20549;-60
2023/08/01 02:16:35;;;;;;;3.85;2.65;;;;;;;19.89;58.11;99358.72;5043463;28;20465;-61
2023/08/01 02:19:03;;;;;;;4.10;2.80;;;;;;;19.87;58.06;99347.50;5048133;28;20700;-61
2023/08/01 02:21:31;;;;;;;3.22;2.30;;;;;;;19.83;58.12;99352.06;5050067;28;20205;-60
2023/08/01 02:23:59;;;;;;;3.20;2.30;;;;;;;19.79;58.50;99348.81;5054364;28;20198;-60
2023/08/01 02:26:27;;;;;;;2.83;2.40;;;;;;;19.75;58.23;99347.31;5049770;28;20634;-61
2023/08/01 02:28:56;;;;;;;3.15;2.55;;;;;;;19.70;58.28;99341.53;5045645;28;20201;-61
2023/08/01 02:31:24;;;;;;;5.63;2.90;;;;;;;19.67;58.84;99326.03;5047858;28;20572;-61
2023/08/01 02:33:52;;;;;;;5.25;2.50;;;;;;;19.65;58.79;99327.03;5056048;28;20329;-61
2023/08/01 02:36:20;;;;;;;4.85;2.63;;;;;;;19.62;58.63;99311.50;5052828;28;20205;-61
2023/08/01 02:38:47;;;;;;;3.70;2.70;;;;;;;19.62;58.69;99316.75;5049190;28;20292;-62
2023/08/01 02:41:15;;;;;;;3.92;2.50;;;;;;;19.60;58.53;99314.22;5064680;28;20225;-60
2023/08/01 02:43:43;;;;;;;3.63;2.22;;;;;;;19.59;58.45;99309.94;5052317;28;20603;-60
2023/08/01 02:46:13;;;;;;;2.38;2.10;;;;;;;19.62;58.32;99314.13;5054501;28;20607;-60
2023/08/01 02:48:44;;;;;;;4.13;2.33;;;;;;;19.62;58.34;99307.16;5052256;28;20210;-61
2023/08/01 02:51:12;;;;;;;4.65;2.25;;;;;;;19.64;58.32;99305.31;5049188;28;20296;-61
2023/08/01 02:53:40;;;;;;;4.57;2.55;;;;;;;19.64;58.22;99300.06;5053809;28;20190;-61
2023/08/01 02:56:09;;;;;;;3.28;2.70;;;;;;;19.65;57.82;99298.28;5051723;28;20210;-60
2023/08/01 02:58:38;;;;;;;5.22;2.50;;;;;;;19.68;58.04;99298.13;5051483;28;20213;-61
2023/08/01 03:01:09;;;;;;;2.90;2.60;;;;;;;19.69;58.16;99289.31;5056989;28;20703;-62
2023/08/01 03:03:39;;;;;;;3.85;2.13;;;;;;;19.72;57.85;99289.16;5054645;28;20617;-60
2023/08/01 03:06:07;;;;;;;4.05;2.42;;;;;;;19.73;57.77;99286.44;5053014;28;20626;-61
2023/08/01 03:08:35;;;;;;;3.42;2.40;;;;;;;19.75;57.75;99278.50;5048261;28;20206;-60
2023/08/01 03:11:03;;;;;;;6.10;2.85;;;;;;;19.73;57.48;99289.03;5049553;28;20213;-60
2023/08/01 03:13:31;;;;;;;5.43;2.40;;;;;;;19.70;57.83;99286.63;5051847;28;20564;-61
2023/08/01 03:15:59;;;;;;;5.13;2.63;;;;;;;19.69;58.08;99282.31;5052544;28;20198;-61
2023/08/01 03:18:29;;;;;;;6.35;2.63;;;;;;;19.72;58.12;99281.31;5051365;28;20217;-61
2023/08/01 03:20:58;;;;;;;3.85;2.95;;;;;;;19.73;57.71;99273.34;5049899;28;20211;-61
2023/08/01 03:23:26;;;;;;;3.70;2.60;;;;;;;19.70;57.73;99272.69;5049818;28;20222;-61
2023/08/01 03:25:54;;;;;;;3.78;2.47;;;;;;;19.71;57.59;99280.47;5050424;28;20206;-61
2023/08/01 03:28:23;;;;;;;4.63;2.67;;;;;;;19.71;57.94;99269.19;5054353;28;21235;-62
2023/08/01 03:30:53;;;;;;;5.93;2.30;;;;;;;19.73;57.79;99281.19;5054299;28;20597;-61
2023/08/01 03:33:21;;;;;;;4.07;2.80;;;;;;;19.66;57.46;99273.81;5049267;28;20287;-61
2023/08/01 03:35:49;;;;;;;4.38;3.00;;;;;;;19.68;57.80;99270.19;5060044;28;20678;-61
2023/08/01 03:38:18;;;;;;;3.67;2.47;;;;;;;19.70;58.08;99259.63;5052789;28;20229;-61
2023/08/01 03:40:46;;;;;;;5.63;2.25;;;;;;;19.73;57.76;99256.84;5049446;28;20208;-62
2023/08/01 03:43:14;;;;;;;4.05;2.60;;;;;;;19.74;57.83;99259.38;5057801;28;20230;-61
2023/08/01 03:45:42;;;;;;;3.58;2.13;;;;;;;19.76;57.67;99259.28;5048981;28;20241;-60
2023/08/01 03:48:11;;;;;;;3.13;1.88;;;;;;;19.78;57.60;99254.78;5050638;28;20234;-62
2023/08/01 03:50:39;;;;;;;3.70;2.30;;;;;;;19.82;57.59;99260.69;5049448;28;20226;-61
2023/08/01 03:53:08;;;;;;;4.43;2.25;;;;;;;19.81;57.20;99257.22;5047044;28;20276;-59
2023/08/01 03:55:37;;;;;;;3.63;2.20;;;;;;;19.76;56.96;99247.03;5050805;28;20718;-59
2023/08/01 03:58:05;;;;;;;5.15;2.67;;;;;;;19.74;57.05;99248.91;5047541;28;20663;-59
2023/08/01 04:00:33;;;;;;;4.03;2.35;;;;;;;19.75;57.05;99245.38;5049711;28;20212;-61
2023/08/01 04:03:02;;;;;;;5.07;2.33;;;;;;;19.78;56.80;99249.56;5050970;28;20198;-59
2023/08/01 04:05:30;;;;;;;4.68;2.28;;;;;;;19.79;56.83;99246.00;5050728;28;20212;-60
2023/08/01 04:07:58;;;;;;;3.72;1.90;;;;;;;19.79;56.74;99238.16;5050850;28;20257;-58
2023/08/01 04:10:26;;;;;;;3.17;2.03;;;;;;;19.79;57.00;99236.38;5047851;28;20202;-59
2023/08/01 04:12:56;;;;;;;4.70;2.30;;;;;;;19.80;56.46;99242.44;5050990;28;20212;-59
2023/08/01 04:15:24;;;;;;;3.03;2.08;;;;;;;19.81;56.61;99236.31;5052573;28;20627;-59
2023/08/01 04:17:52;;;;;;;8.40;2.45;;;;;;;19.85;56.42;99236.97;5051887;28;20281;-61
2023/08/01 04:20:20;;;;;;;2.22;1.70;;;;;;;19.89;56.35;99246.28;5048794;28;20206;-60
2023/08/01 04:22:48;;;;;;;5.18;2.30;;;;;;;19.91;56.02;99241.78;5052777;28;20216;-58
2023/08/01 04:25:16;;;;;;;4.43;2.17;;;;;;;19.95;55.87;99235.41;5051446;28;20637;-59
2023/08/01 04:27:44;;;;;;;8.00;2.10;;;;;;;19.99;56.01;99234.28;5050453;28;20233;-61
2023/08/01 04:30:13;;;;;;;3.63;2.22;;;;;;;20.02;55.88;99232.31;5050521;28;20652;-59
2023/08/01 04:32:41;;;;;;;4.22;2.20;;;;;;;20.03;55.48;99227.94;5048946;28;20232;-59
2023/08/01 04:35:09;;;;;;;3.58;2.40;;;;;;;20.01;55.69;99228.03;5047867;28;20210;-60
2023/08/01 04:37:37;;;;;;;5.75;2.28;;;;;;;20.01;55.55;99225.41;5049820;28;20233;-60
2023/08/01 04:40:06;;;;;;;4.57;2.22;;;;;;;20.04;55.67;99234.84;5050083;28;20206;-59
2023/08/01 04:42:34;;;;;;;1.92;1.80;;;;;;;20.02;55.55;99221.03;5056387;28;20293;-59
2023/08/01 04:45:02;;;;;;;4.47;2.25;;;;;;;20.05;55.37;99217.38;5053447;28;20489;-59
2023/08/01 04:47:31;;;;;;;3.58;2.22;;;;;;;20.09;54.92;99216.25;5045368;28;20661;-60
2023/08/01 04:49:59;;;;;;;4.57;1.80;;;;;;;20.13;54.54;99208.09;5047312;28;20285;-59
2023/08/01 04:52:27;;;;;;;4.68;2.20;;;;;;;20.19;54.67;99212.94;5048492;28;20245;-60
2023/08/01 04:54:55;;;;;;;5.85;1.98;;;;;;;20.28;54.43;99219.34;5050678;28;20598;-61
2023/08/01 04:57:23;;;;;;;5.22;2.03;;;;;;;20.37;54.46;99212.69;5048837;28;20573;-59
2023/08/01 04:59:51;;;;;;;4.30;2.17;;;;;;;20.42;53.94;99208.00;5051076;28;20203;-59
2023/08/01 05:02:19;;;;;;;3.65;2.38;;;;;;;20.44;54.05;99203.50;5044802;28;20617;-59
2023/08/01 05:04:49;;;;;;;4.65;1.90;;;;;;;20.50;53.74;99205.75;5047539;28;20569;-60
2023/08/01 05:07:17;;;;;;;3.78;2.20;;;;;;;20.56;53.83;99199.28;5049686;28;20703;-60
2023/08/01 05:09:45;;;;;;;3.03;2.05;;;;;;;20.63;53.86;99204.00;5045596;28;20677;-59
2023/08/01 05:12:13;;;;;;;3.65;1.75;;;;;;;20.71;53.38;99193.84;5046320;28;20205;-59
2023/08/01 05:14:41;;;;;;;2.50;1.77;;;;;;;20.84;53.20;99193.00;5050223;28;20205;-59
2023/08/01 05:17:09;;;;;;;2.78;2.40;;;;;;;21.04;52.40;99192.50;5043795;28;20659;-59
2023/08/01 05:19:37;;;;;;;4.10;1.80;;;;;;;21.21;51.83;99210.53;5047762;28;20267;-59
2023/08/01 05:22:07;;;;;;;9.15;2.47;;;;;;;21.26;51.19;99197.13;5052343;28;20205;-59
2023/08/01 05:24:35;;;;;;;4.00;2.30;;;;;;;21.20;51.46;99198.34;5050366;28;20409;-59
2023/08/01 05:27:03;;;;;;;2.42;1.70;;;;;;;21.12;51.98;99181.50;5048494;28;20675;-58
2023/08/01 05:29:31;;;;;;;3.72;1.77;;;;;;;21.06;51.78;99195.88;5038274;28;20226;-60
2023/08/01 05:31:59;;;;;;;4.88;2.17;;;;;;;20.98;51.72;99192.91;5040193;28;20205;-60
2023/08/01 05:34:27;;;;;;;4.68;1.95;;;;;;;20.92;51.92;99180.25;5046323;28;20273;-60
2023/08/01 05:36:55;;;;;;;9.80;2.42;;;;;;;20.86;51.80;99181.50;5042898;28;20210;-60
2023/08/01 05:39:24;;;;;;;4.53;2.42;;;;;;;20.83;51.96;99186.09;5040657;28;20205;-59
2023/08/01 05:41:52;;;;;;;5.05;2.35;;;;;;;20.82;52.43;99181.81;5045598;28;20198;-60
2023/08/01 05:44:20;;;;;;;5.38;2.33;;;;;;;20.87;52.57;99188.41;5046632;28;20251;-61
2023/08/01 05:46:48;;;;;;;2.95;2.15;;;;;;;20.90;52.66;99180.34;5046040;28;20203;-60
2023/08/01 05:49:16;;;;;;;3.65;2.15;;;;;;;20.99;52.54;99181.53;5058249;28;20249;-60
2023/08/01 05:51:44;;;;;;;4.03;1.88;;;;;;;21.03;52.47;99172.50;5066737;28;20248;-60
2023/08/01 05:54:12;;;;;;;4.70;2.33;;;;;;;21.10;52.08;99168.53;5057701;28;20209;-60
2023/08/01 05:56:42;;;;;;;2.78;1.98;;;;;;;21.18;52.04;99173.22;5053433;28;20573;-60
2023/08/01 05:59:10;;;;;;;4.03;2.10;;;;;;;21.23;52.03;99174.56;5045333;28;20209;-60
2023/08/01 06:01:38;;;;;;;4.55;2.05;;;;;;;21.32;51.91;99180.13;5048143;28;20786;-61
2023/08/01 06:04:06;;;;;;;7.50;2.63;;;;;;;21.41;51.59;99182.13;5054051;28;20221;-60
2023/08/01 06:06:35;;;;;;;6.50;2.25;;;;;;;21.49;51.80;99182.44;5050855;28;20656;-60
2023/08/01 06:09:03;;;;;;;4.85;2.25;;;;;;;21.58;51.67;99175.72;5051538;28;20228;-60
2023/08/01 06:11:33;;;;;;;10.73;2.90;;;;;;;21.68;51.44;99168.84;5047708;28;20680;-61
2023/08/01 06:14:02;;;;;;;3.03;2.10;;;;;;;21.74;51.24;99163.19;5053583;28;20206;-59
2023/08/01 06:16:30;;;;;;;6.78;2.30;;;;;;;21.79;51.02;99165.47;5053688;28;20229;-60
2023/08/01 06:18:59;;;;;;;3.05;1.85;;;;;;;21.85;51.17;99158.00;5047956;28;20204;-63
2023/08/01 06:21:27;;;;;;;2.88;1.85;;;;;;;21.95;51.00;99160.81;5054053;28;20202;-63
2023/08/01 06:23:55;;;;;;;4.00;2.40;;;;;;;22.02;50.62;99159.41;5052205;28;20542;-64
2023/08/01 06:26:23;;;;;;;4.03;2.10;;;;;;;22.03;50.44;99153.19;5049212;28;20652;-63
2023/08/01 06:28:52;;;;;;;9.55;2.10;;;;;;;22.06;50.50;99152.97;5046072;28;20226;-63
2023/08/01 06:31:22;;;;;;;5.90;1.98;;;;;;;22.07;50.71;99144.16;5054311;28;20229;-63
2023/08/01 06:33:50;;;;;;;4.03;2.10;;;;;;;22.09;50.45;99146.66;5051573;28;20261;-62
2023/08/01 06:36:18;;;;;;;2.85;2.03;;;;;;;22.09;50.33;99144.88;5052222;28;20201;-62
2023/08/01 06:38:47;;;;;;;3.47;1.83;;;;;;;22.10;50.20;99143.09;5050050;28;20194;-63
2023/08/01 06:41:15;;;;;;;3.45;1.60;;;;;;;22.17;50.40;99137.31;5053684;28;20220;-62
2023/08/01 06:43:43;;;;;;;4.00;1.90;;;;;;;22.29;50.18;99135.56;5051700;28;20648;-63
2023/08/01 06:46:11;;;;;;;3.05;2.13;;;;;;;22.33;50.07;99136.16;5052107;28;20209;-64
2023/08/01 06:48:40;;;;;;;4.05;1.73;;;;;;;22.36;49.65;99130.69;5064123;28;20219;-63
2023/08/01 06:51:08;;;;;;;3.50;2.10;;;;;;;22.41;49.59;99125.94;5053390;28;20609;-64
2023/08/01 06:53:36;;;;;;;5.90;2.00;;;;;;;22.51;49.53;99124.28;5046584;28;20217;-63
2023/08/01 06:56:05;;;;;;;3.72;1.95;;;;;;;22.72;49.89;99132.34;5049318;28;20202;-63
2023/08/01 06:58:33;;;;;;;5.50;1.98;;;;;;;22.92;49.10;99128.19;5047594;28;20267;-64
2023/08/01 07:01:01;;;;;;;6.80;2.15;;;;;;;23.18;48.73;99127.97;5050305;28;20653;-62
2023/08/01 07:03:29;;;;;;;4.22;2.03;;;;;;;23.39;47.89;99113.13;5050769;28;20212;-63
2023/08/01 07:05:59;;;;;;;5.97;1.77;;;;;;;23.61;46.92;99104.38;5057774;28;20256;-64
2023/08/01 07:08:27;;;;;;;3.97;1.90;;;;;;;23.95;46.72;99109.53;5050237;28;20343;-63
2023/08/01 07:10:55;;;;;;;6.18;2.38;;;;;;;24.40;45.67;99107.56;5051890;28;20237;-63
2023/08/01 07:13:25;;;;;;;3.78;2.33;;;;;;;24.64;44.18;99096.75;5050760;28;20201;-64
2023/08/01 07:15:53;;;;;;;3.65;1.95;;;;;;;24.66;44.15;99107.16;5054622;28;20206;-64
2023/08/01 07:18:21;;;;;;;4.32;2.35;;;;;;;24.57;44.61;99114.03;5046217;28;20203;-64
2023/08/01 07:20:59;;;;;;;4.70;2.17;;;;;;;24.47;44.77;99100.81;5052131;28;20635;-62
2023/08/01 07:23:29;;;;;;;7.53;2.60;;;;;;;24.37;44.69;99099.88;5051162;28;20240;-65
2023/08/01 07:25:58;;;;;;;7.15;2.33;;;;;;;24.43;45.00;99094.13;5047465;28;20550;-64
2023/08/01 07:28:29;;;;;;;8.70;2.15;;;;;;;24.70;44.53;99092.75;5047646;28;20206;-65
2023/08/01 07:31:00;;;;;;;5.72;1.65;;;;;;;24.69;44.14;99097.19;5051618;28;20553;-65
2023/08/01 07:33:29;;;;;;;4.93;2.08;;;;;;;24.79;43.68;99089.34;5051124;28;20229;-64
2023/08/01 07:35:57;;;;;;;5.43;2.10;;;;;;;24.90;43.81;99091.88;5048839;28;20233;-69
2023/08/01 07:38:26;;;;;;;5.05;1.88;;;;;;;24.96;43.68;99091.34;5050673;28;20275;-71
2023/08/01 07:40:56;;;;;;;3.88;2.17;;;;;;;24.97;43.40;99087.75;5049695;28;20209;-70
2023/08/01 07:43:24;;;;;;;3.38;2.28;;;;;;;24.96;43.94;99087.88;5047142;28;20325;-68
2023/08/01 07:45:56;;;;;;;11.15;3.00;;;;;;;24.94;44.10;99082.75;5051980;28;20206;-70
2023/08/01 07:48:28;;;;;;;3.70;2.10;;;;;;;24.83;44.59;99078.41;5049764;28;20205;-70
2023/08/01 07:50:56;;;;;;;4.47;2.10;;;;;;;24.63;44.63;99078.44;5051743;28;20258;-69
2023/08/01 07:53:27;;;;;;;4.30;2.15;;;;;;;24.40;44.94;99083.03;5050012;28;20233;-71
2023/08/01 07:55:57;;;;;;;5.13;2.05;;;;;;;24.22;45.53;99077.47;5050351;28;20632;-69
2023/08/01 07:58:25;;;;;;;2.22;1.90;;;;;;;24.13;46.03;99076.44;5047836;28;20209;-71
2023/08/01 08:00:54;;;;;;;2.75;2.17;;;;;;;24.16;46.60;99075.38;5049311;28;20731;-69
2023/08/01 08:03:23;;;;;;;3.95;2.22;;;;;;;24.23;46.09;99074.72;5052396;28;20297;-71
2023/08/01 08:05:52;;;;;;;6.90;2.20;;;;;;;24.34;45.60;99065.94;5047721;28;20229;-70
2023/08/01 08:08:20;;;;;;;6.20;2.15;;;;;;;24.44;45.67;99053.66;5050188;28;20206;-71
2023/08/01 08:10:48;;;;;;;4.47;2.08;;;;;;;24.53;45.65;99055.53;5053196;28;20773;-70
2023/08/01 08:13:18;;;;;;;4.22;2.15;;;;;;;24.57;45.04;99048.19;5051246;28;20210;-70
2023/08/01 08:15:46;;;;;;;4.32;2.20;;;;;;;24.68;45.59;99050.75;5048570;28;20534;-70
2023/08/01 08:18:14;;;;;;;9.35;2.58;;;;;;;24.75;45.25;99054.53;5048477;28;20272;-72
2023/08/01 08:20:46;;;;;;;3.78;2.20;;;;;;;24.88;45.42;99054.28;5050951;28;20205;-72
2023/08/01 08:23:15;;;;;;;3.15;2.50;;;;;;;24.96;44.92;99046.53;5050387;28;20271;-73
2023/08/01 08:25:44;;;;;;;3.83;2.05;;;;;;;24.96;45.12;99048.34;5051251;28;20205;-71
2023/08/01 08:28:29;;;;;;;4.05;1.73;;;;;;;24.86;45.27;99047.50;5125411;27;20579;-70
2023/08/01 08:30:58;;;;;;;2.53;2.00;;;;;;;24.70;45.13;99043.53;5108012;28;20617;-70
2023/08/01 08:33:26;;;;;;;3.10;2.25;;;;;;;24.61;45.92;99048.78;5107338;28;20196;-70
2023/08/01 08:35:54;;;;;;;4.10;2.22;;;;;;;24.51;45.94;99043.44;5106992;28;20723;-71
2023/08/01 08:38:22;;;;;;;4.10;2.30;;;;;;;24.41;46.86;99038.13;5107295;28;20221;-69
2023/08/01 08:41:02;;;;;;;4.18;2.40;;;;;;;24.34;47.32;99039.59;5108001;28;20593;-69
2023/08/01 08:43:33;;;;;;;4.50;2.28;;;;;;;24.33;47.38;99051.06;5106852;28;20241;-69
2023/08/01 08:46:04;;;;;;;3.90;2.08;;;;;;;24.26;47.55;99039.38;5107248;28;20214;-68
2023/08/01 08:48:33;;;;;;;4.25;2.20;;;;;;;24.17;47.45;99040.19;5108194;28;20681;-71
2023/08/01 08:51:03;;;;;;;6.00;2.47;;;;;;;24.10;47.95;99045.94;5107784;28;20208;-69
2023/08/01 08:53:32;;;;;;;5.10;2.50;;;;;;;24.08;48.12;99036.50;5109095;28;20250;-69
2023/08/01 08:56:01;;;;;;;3.80;2.13;;;;;;;24.06;47.88;99041.91;5099614;28;20212;-69
2023/08/01 08:58:34;;;;;;;3.97;2.17;;;;;;;24.02;47.31;99031.75;5106394;28;20215;-71
2023/08/01 09:01:04;;;;;;;5.60;2.00;;;;;;;23.94;47.17;99027.16;5103447;28;20254;-69
2023/08/01 09:03:32;;;;;;;3.88;1.55;;;;;;;23.83;46.93;99032.47;5104065;28;20682;-69
2023/08/01 09:06:05;;;;;;;2.90;2.13;;;;;;;23.75;47.31;99034.88;5107079;28;20290;-70
2023/08/01 09:08:36;;;;;;;3.78;2.28;;;;;;;23.68;47.62;99034.56;5106268;28;20601;-69
2023/08/01 09:11:05;;;;;;;3.33;1.98;;;;;;;23.65;47.78;99015.53;5105196;28;20208;-69
2023/08/01 09:13:35;;;;;;;3.50;1.92;;;;;;;23.66;47.83;99027.72;5104599;28;20204;-69
2023/08/01 09:16:03;;;;;;;3.72;1.80;;;;;;;23.65;48.08;99018.16;5101862;28;20241;-68
2023/08/01 09:18:32;;;;;;;2.83;2.08;;;;;;;23.69;48.06;99007.28;5102056;28;20211;-69
2023/08/01 09:21:02;;;;;;;2.80;2.10;;;;;;;23.75;48.22;99003.31;5105607;28;20197;-70
2023/08/01 09:23:32;;;;;;;2.97;1.80;;;;;;;23.82;47.74;99005.31;5103785;28;20223;-61
2023/08/01 09:26:00;;;;;;;3.92;2.00;;;;;;;23.91;47.24;98995.81;5103792;28;20294;-69
2023/08/01 09:28:28;;;;;;;3.78;2.13;;;;;;;23.96;47.15;98998.88;5103430;28;20209;-68
2023/08/01 09:30:57;;;;;;;3.80;2.13;;;;;;;24.05;47.32;98995.50;5102319;28;20219;-62
2023/08/01 09:33:26;;;;;;;5.32;2.45;;;;;;;24.17;47.18;98998.88;5101895;28;20230;-63
2023/08/01 09:35:54;;;;;;;3.40;2.00;;;;;;;24.30;46.36;99003.94;5103389;28;20227;-63
2023/08/01 09:38:23;;;;;;;3.05;2.08;;;;;;;24.45;46.73;99004.47;5101063;28;20235;-62
2023/08/01 09:40:51;;;;;;;3.13;1.92;;;;;;;24.59;46.23;99007.56;5092479;28;20773;-64
2023/08/01 09:43:19;;;;;;;4.15;2.17;;;;;;;24.67;46.02;98999.03;5092507;28;20258;-62
2023/08/01 09:45:51;;;;;;;4.05;2.33;;;;;;;24.68;45.99;98999.88;5094139;28;20203;-61
2023/08/01 09:48:26;;;;;;;4.82;2.40;;;;;;;24.62;45.89;99003.03;5092060;28;20223;-62
2023/08/01 09:51:07;;;;;;;5.30;2.10;;;;;;;24.45;45.94;98993.91;5089964;28;20558;-69
2023/08/01 09:53:37;;;;;;;2.97;2.28;;;;;;;24.35;46.20;99007.03;5091508;28;20193;-70
2023/08/01 09:56:05;;;;;;;2.53;2.17;;;;;;;24.31;46.22;98995.09;5093269;28;20682;-68
2023/08/01 09:58:34;;;;;;;6.13;2.35;;;;;;;24.33;46.32;98998.41;5092722;28;20209;-70
2023/08/01 10:01:03;;;;;;;3.80;2.20;;;;;;;24.38;46.41;98998.03;5091486;28;20631;-69
2023/08/01 10:03:32;;;;;;;3.70;2.22;;;;;;;24.30;45.98;98994.25;5090283;28;20656;-68
2023/08/01 10:06:01;;;;;;;3.83;2.33;;;;;;;24.25;46.62;98992.97;5089355;28;20706;-59
2023/08/01 10:08:32;;;;;;;3.00;2.08;;;;;;;24.27;47.00;98998.97;5093547;28;20275;-66
2023/08/01 10:11:04;;;;;;;7.65;2.45;;;;;;;24.22;46.97;98996.69;5091973;28;20290;-64
2023/08/01 10:13:33;;;;;;;4.18;2.08;;;;;;;24.16;46.98;98996.41;5083199;28;20247;-69
2023/08/01 10:16:01;;;;;;;3.22;2.60;;;;;;;24.07;47.25;98998.81;5090786;28;20231;-70
2023/08/01 10:18:33;;;;;;;3.65;2.20;;;;;;;23.94;48.07;99003.47;5092687;28;20655;-69
2023/08/01 10:21:02;;;;;;;5.05;2.60;;;;;;;23.79;48.93;99004.75;5090737;28;20737;-69
2023/08/01 10:23:31;;;;;;;2.63;2.22;;;;;;;23.65;49.71;98999.75;5091151;28;20682;-69
2023/08/01 10:25:59;;;;;;;3.88;2.55;;;;;;;23.51;50.31;99009.59;5095302;28;20659;-70
2023/08/01 10:28:35;;;;;;;6.05;2.40;;;;;;;23.45;50.69;99002.19;5086948;28;20575;-71
2023/08/01 10:31:10;;;;;;;2.47;2.03;;;;;;;23.38;51.39;99003.66;5090365;28;20258;-71
2023/08/01 10:33:42;;;;;;;4.07;2.55;;;;;;;23.24;52.60;99014.47;5088854;28;20223;-70
2023/08/01 10:36:17;;;;;;;5.97;2.90;;;;;;;23.11;53.32;99023.31;5087756;28;20204;-69
2023/08/01 10:38:47;;;;;;;5.13;2.50;;;;;;;23.01;53.70;98998.72;5086857;28;20299;-70
2023/08/01 10:41:27;;;;;;;3.47;2.42;;;;;;;22.93;54.71;98995.88;5088836;28;20280;-69
2023/08/01 10:44:06;;;;;;;3.17;2.40;;;;;;;22.87;55.63;99010.31;5086746;28;20205;-70
2023/08/01 10:46:47;;;;;;;4.38;2.47;;;;;;;22.82;55.68;99003.75;5086866;28;20297;-69
2023/08/01 10:49:17;;;;;;;5.15;2.90;;;;;;;22.81;55.72;99002.09;5088499;28;20236;-70
2023/08/01 10:51:46;;;;;;;6.53;2.83;;;;;;;22.80;55.90;99000.44;5089235;28;20812;-70
2023/08/01 10:54:24;;;;;;;5.63;2.83;;;;;;;22.81;56.19;99002.09;5091204;28;20831;-73
2023/08/01 10:56:54;;;;;;;2.90;2.30;;;;;;;22.78;55.90;98992.66;5086782;28;20650;-67
2023/08/01 10:59:23;;;;;;;3.72;2.50;;;;;;;22.79;56.37;98990.84;5089230;28;20211;-70
2023/08/01 11:01:52;;;;;;;3.85;2.65;;;;;;;22.81;56.21;98991.56;5089402;28;20286;-72
2023/08/01 11:04:24;;;;;;;9.20;2.85;;;;;;;22.79;56.53;98994.34;5090135;28;20256;-69
2023/08/01 11:06:56;;;;;;;4.03;2.72;;;;;;;22.79;56.89;98993.47;5083455;28;20558;-72
2023/08/01 11:09:26;;;;;;;5.88;2.60;;;;;;;22.78;57.02;98991.81;5085825;28;20314;-69
2023/08/01 11:11:55;;;;;;;5.35;2.78;;;;;;;22.82;57.18;98995.88;5086070;28;20561;-69
2023/08/01 11:14:24;;;;;;;4.40;2.55;;;;;;;22.82;57.14;98991.44;5084963;28;20232;-69
2023/08/01 11:16:54;;;;;;;3.50;2.38;;;;;;;22.83;57.44;98984.44;5083984;28;20226;-70
2023/08/01 11:19:25;;;;;;;5.78;2.22;;;;;;;22.82;57.75;98993.25;5088259;28;20201;-69
2023/08/01 11:21:56;;;;;;;8.60;2.70;;;;;;;22.84;58.02;98992.16;5088094;28;20723;-72
2023/08/01 11:24:25;;;;;;;4.97;2.60;;;;;;;22.95;57.89;98991.34;5087207;28;20681;-70
2023/08/01 11:26:55;;;;;;;3.97;2.50;;;;;;;23.00;57.63;98990.97;5085357;28;20239;-69
2023/08/01 11:29:23;;;;;;;3.92;2.60;;;;;;;23.05;57.38;98988.81;5087703;28;20270;-70
2023/08/01 11:31:55;;;;;;;3.17;2.55;;;;;;;23.10;57.23;98987.50;5088101;28;20712;-70
2023/08/01 11:34:24;;;;;;;5.72;3.10;;;;;;;23.10;57.04;98984.03;5085333;28;20204;-69
2023/08/01 11:36:53;;;;;;;5.05;2.50;;;;;;;23.04;57.52;98987.97;5088695;28;20246;-69
2023/08/01 11:39:22;;;;;;;3.95;2.67;;;;;;;23.05;57.66;98986.19;5087987;28;20292;-69
2023/08/01 11:41:50;;;;;;;4.65;2.70;;;;;;;23.04;57.73;98990.59;5090068;28;20239;-70